Time;durP1;ratioP1;P1;durP2;ratioP2;P2;SDS_P1;SDS_P2;PMS_P1;PMS_P2;Temp;Humidity;BMP_temperature;BMP_pressure;BME280_temperature;BME280_humidity;BME280_pressure;Samples;Min_cycle;Max_cycle;Signal;HPM_P1;HPM_P2
2022/03/15 00:02:49;;;;;;;8.40;6.97;;;;;;;8.83;78.91;101583.89;2535053;92;21716;-67
2022/03/15 00:06:50;;;;;;;8.78;6.05;;;;;;;8.89;78.70;101592.45;2575907;92;21101;-67
2022/03/15 00:10:57;;;;;;;10.53;8.28;;;;;;;8.87;78.75;101589.90;2575937;92;21046;-67
2022/03/15 00:14:56;;;;;;;14.80;8.75;;;;;;;8.94;78.28;101595.25;2535013;93;21144;-67
2022/03/15 00:18:57;;;;;;;11.60;8.50;;;;;;;8.99;78.27;101594.52;2575672;92;21138;-66
2022/03/15 00:23:00;;;;;;;9.50;6.35;;;;;;;9.04;77.92;101600.91;2575946;92;21161;-66
2022/03/15 00:27:03;;;;;;;13.22;6.67;;;;;;;9.07;77.89;101601.23;2535129;93;21112;-66
2022/03/15 00:31:05;;;;;;;10.08;6.78;;;;;;;9.05;78.13;101598.64;2576100;92;21049;-67
2022/03/15 00:35:16;;;;;;;8.90;6.12;;;;;;;9.09;77.98;101599.34;2575884;92;21447;-67
2022/03/15 00:39:11;;;;;;;7.30;5.65;;;;;;;9.13;78.38;101600.88;2534701;93;21541;-67
2022/03/15 00:43:13;;;;;;;8.63;5.92;;;;;;;9.21;77.86;101604.45;2565651;93;21122;-66
2022/03/15 00:47:15;;;;;;;7.60;5.95;;;;;;;9.23;77.90;101596.77;2576159;92;21081;-67
2022/03/15 00:51:16;;;;;;;8.48;6.50;;;;;;;9.29;77.50;101588.48;2534966;94;21090;-67
2022/03/15 00:55:18;;;;;;;12.05;6.20;;;;;;;9.28;77.51;101585.90;2576150;91;21067;-67
2022/03/15 00:59:20;;;;;;;10.53;5.95;;;;;;;9.30;77.20;101581.36;2575710;92;21094;-67
2022/03/15 01:03:22;;;;;;;6.80;5.28;;;;;;;9.26;77.51;101574.51;2576234;92;21470;-67
2022/03/15 01:07:23;;;;;;;6.50;5.87;;;;;;;9.27;77.21;101578.87;2576265;92;21714;-66
2022/03/15 01:11:25;;;;;;;7.30;5.72;;;;;;;9.25;77.67;101572.34;2576334;92;21111;-67
2022/03/15 01:15:26;;;;;;;8.53;6.33;;;;;;;9.29;77.36;101572.55;2576491;92;21082;-66
2022/03/15 01:19:29;;;;;;;10.82;5.80;;;;;;;9.33;77.34;101575.87;2576149;92;21078;-66
2022/03/15 01:23:31;;;;;;;8.68;6.22;;;;;;;9.36;77.08;101573.52;2576508;92;21039;-66
2022/03/15 01:27:34;;;;;;;7.50;6.35;;;;;;;9.40;76.89;101577.25;2576472;92;21023;-66
2022/03/15 01:31:36;;;;;;;9.33;6.30;;;;;;;9.43;76.61;101568.23;2576457;91;21079;-67
2022/03/15 01:35:37;;;;;;;17.32;10.78;;;;;;;9.43;76.21;101576.20;2576674;92;21078;-66
2022/03/15 01:39:39;;;;;;;19.25;10.00;;;;;;;9.42;75.81;101565.20;2582620;91;21102;-67
2022/03/15 01:43:41;;;;;;;14.25;10.08;;;;;;;9.43;75.51;101563.80;2597480;90;21097;-66
2022/03/15 01:47:43;;;;;;;21.73;13.20;;;;;;;9.49;75.35;101569.23;2597511;91;21105;-67
2022/03/15 01:51:46;;;;;;;17.67;12.70;;;;;;;9.55;74.95;101569.37;2597256;91;21057;-66
2022/03/15 01:55:49;;;;;;;19.57;11.55;;;;;;;9.51;74.63;101562.03;2597824;91;21110;-66
2022/03/15 01:59:51;;;;;;;13.90;10.03;;;;;;;9.49;74.50;101568.37;2597561;91;21070;-66
2022/03/15 02:03:52;;;;;;;9.70;7.87;;;;;;;9.50;74.34;101574.94;2597642;91;21102;-66
2022/03/15 02:07:54;;;;;;;11.83;8.50;;;;;;;9.46;74.04;101565.44;2597748;91;21347;-67
2022/03/15 02:11:56;;;;;;;11.48;7.78;;;;;;;9.29;74.21;101569.89;2597459;91;21065;-67
2022/03/15 02:15:57;;;;;;;13.10;8.28;;;;;;;9.10;74.39;101556.77;2597451;91;21042;-67
2022/03/15 02:19:59;;;;;;;11.12;6.30;;;;;;;8.98;74.40;101554.81;2652992;89;21081;-67
2022/03/15 02:24:01;;;;;;;9.23;6.28;;;;;;;8.86;74.69;101545.73;2680821;89;21070;-67
2022/03/15 02:28:03;;;;;;;10.32;8.40;;;;;;;8.79;74.99;101553.16;2680754;89;21528;-66
2022/03/15 02:32:06;;;;;;;14.47;8.53;;;;;;;8.61;75.72;101550.17;2680463;89;21085;-67
2022/03/15 02:36:08;;;;;;;14.10;9.08;;;;;;;8.25;76.62;101557.27;2680545;89;21018;-67
2022/03/15 02:40:11;;;;;;;17.30;8.45;;;;;;;7.93;77.20;101555.82;2670015;87;21123;-67
2022/03/15 02:44:12;;;;;;;14.68;8.55;;;;;;;7.72;77.09;101554.64;2651740;89;21079;-67
2022/03/15 02:48:14;;;;;;;15.35;9.88;;;;;;;7.60;76.96;101555.23;2651647;89;21110;-68
2022/03/15 02:52:15;;;;;;;18.12;11.65;;;;;;;7.46;77.63;101564.69;2651699;89;21086;-67
2022/03/15 02:56:17;;;;;;;12.93;9.38;;;;;;;7.22;79.55;101561.45;2651466;89;21059;-67
2022/03/15 03:00:19;;;;;;;13.38;9.35;;;;;;;7.02;80.96;101561.05;2651166;89;21134;-67
2022/03/15 03:04:21;;;;;;;15.70;9.40;;;;;;;6.91;80.13;101570.36;2651250;88;21071;-67
2022/03/15 03:08:25;;;;;;;13.43;11.03;;;;;;;6.92;80.55;101572.52;2651291;89;21095;-66
2022/03/15 03:12:29;;;;;;;18.52;11.75;;;;;;;6.77;80.90;101578.05;2651364;88;21110;-66
2022/03/15 03:16:30;;;;;;;16.62;8.95;;;;;;;6.55;81.62;101572.41;2651200;88;21095;-66
2022/03/15 03:20:31;;;;;;;13.13;9.58;;;;;;;6.45;82.71;101578.56;2651134;89;21102;-66
2022/03/15 03:24:34;;;;;;;11.80;8.63;;;;;;;6.47;82.92;101581.12;2650671;90;21142;-66
2022/03/15 03:28:39;;;;;;;10.32;8.50;;;;;;;6.52;82.82;101589.25;2651466;89;21012;-67
2022/03/15 03:32:41;;;;;;;10.03;8.08;;;;;;;6.50;83.19;101592.43;2651006;89;21051;-66
2022/03/15 03:36:42;;;;;;;13.35;9.08;;;;;;;6.48;82.65;101592.09;2651069;88;21098;-66
2022/03/15 03:40:44;;;;;;;14.73;10.60;;;;;;;6.45;82.26;101594.88;2653588;88;21047;-66
2022/03/15 03:44:46;;;;;;;15.50;8.75;;;;;;;6.51;81.87;101595.95;2657341;89;21055;-66
2022/03/15 03:48:50;;;;;;;11.90;8.80;;;;;;;6.60;81.11;101594.69;2657075;89;21096;-67
2022/03/15 03:52:51;;;;;;;14.23;10.20;;;;;;;6.64;80.44;101594.46;2654681;89;21070;-67
2022/03/15 03:56:53;;;;;;;13.72;9.70;;;;;;;6.61;80.22;101591.95;2655178;88;21058;-66
2022/03/15 04:00:54;;;;;;;10.78;7.87;;;;;;;6.62;79.78;101592.34;2657730;89;21078;-67
2022/03/15 04:04:58;;;;;;;12.82;8.95;;;;;;;6.55;80.44;101595.72;2657735;89;21019;-67
2022/03/15 04:08:59;;;;;;;13.53;11.25;;;;;;;6.56;80.29;101599.24;2658071;89;21149;-67
2022/03/15 04:13:02;;;;;;;12.98;8.48;;;;;;;6.59;80.20;101607.03;2652340;89;21102;-67
2022/03/15 04:17:06;;;;;;;14.03;9.15;;;;;;;6.65;80.02;101603.27;2617946;89;21126;-69
2022/03/15 04:21:07;;;;;;;12.00;9.50;;;;;;;6.64;80.58;101602.39;2638551;89;21081;-68
2022/03/15 04:25:09;;;;;;;15.48;9.55;;;;;;;6.61;80.51;101595.92;2657486;88;21062;-68
2022/03/15 04:29:11;;;;;;;12.78;9.15;;;;;;;6.61;80.52;101600.37;2657854;89;21118;-68
2022/03/15 04:33:12;;;;;;;20.00;12.05;;;;;;;6.68;80.30;101610.61;2657746;89;21091;-69
2022/03/15 04:37:14;;;;;;;12.28;9.35;;;;;;;6.71;80.19;101596.37;2657609;89;21095;-68
2022/03/15 04:41:16;;;;;;;12.82;9.78;;;;;;;6.69;79.44;101612.33;2668145;87;21106;-68
2022/03/15 04:45:17;;;;;;;14.07;11.57;;;;;;;6.68;79.13;101615.02;2680184;89;21047;-69
2022/03/15 04:49:20;;;;;;;13.50;10.18;;;;;;;6.60;78.70;101614.04;2680391;89;21070;-69
2022/03/15 04:53:22;;;;;;;16.12;9.43;;;;;;;6.51;78.54;101621.06;2680372;89;21089;-68
2022/03/15 04:57:23;;;;;;;23.10;15.95;;;;;;;6.36;78.72;101631.36;2679969;89;21096;-68
2022/03/15 05:01:25;;;;;;;17.32;10.38;;;;;;;6.21;80.27;101632.88;2679552;89;21146;-68
2022/03/15 05:05:26;;;;;;;13.18;9.80;;;;;;;6.19;80.89;101632.53;2679388;89;21082;-68
2022/03/15 05:09:28;;;;;;;27.25;12.90;;;;;;;6.22;80.92;101640.33;2680009;89;21085;-69
2022/03/15 05:13:30;;;;;;;21.65;11.88;;;;;;;6.24;80.85;101630.10;2679571;89;21084;-69
2022/03/15 05:17:32;;;;;;;21.35;11.33;;;;;;;6.20;80.75;101628.97;2679391;89;21693;-72
2022/03/15 05:21:34;;;;;;;15.68;7.92;;;;;;;6.18;80.20;101627.70;2679448;89;21070;-68
2022/03/15 05:25:36;;;;;;;10.38;8.38;;;;;;;6.21;80.10;101630.69;2679622;89;21050;-69
2022/03/15 05:29:38;;;;;;;14.68;9.53;;;;;;;6.18;80.50;101627.70;2679989;89;21064;-69
2022/03/15 05:33:39;;;;;;;13.30;10.05;;;;;;;6.11;81.52;101629.77;2679036;89;21129;-69
2022/03/15 05:37:41;;;;;;;14.30;9.15;;;;;;;6.16;82.08;101617.66;2679756;89;21661;-69
2022/03/15 05:41:43;;;;;;;17.20;11.25;;;;;;;6.40;82.35;101620.20;2679838;87;21106;-70
2022/03/15 05:45:45;;;;;;;21.10;13.65;;;;;;;6.69;81.66;101612.77;2679335;89;21372;-70
2022/03/15 05:49:47;;;;;;;15.43;9.58;;;;;;;6.81;80.22;101606.08;2680438;89;21074;-71
2022/03/15 05:53:49;;;;;;;16.25;11.45;;;;;;;6.81;79.39;101606.95;2680170;89;21074;-71
2022/03/15 05:57:51;;;;;;;11.75;8.83;;;;;;;6.86;79.31;101609.36;2680301;89;21046;-70
2022/03/15 06:01:53;;;;;;;18.75;10.68;;;;;;;7.02;79.57;101606.03;2680382;89;21098;-71
2022/03/15 06:05:55;;;;;;;15.98;9.28;;;;;;;7.21;78.87;101597.63;2680638;89;21031;-71
2022/03/15 06:09:57;;;;;;;19.00;12.30;;;;;;;7.41;78.59;101597.16;2680511;89;21062;-71
2022/03/15 06:13:59;;;;;;;17.05;10.05;;;;;;;7.65;78.00;101595.58;2680776;89;21070;-71
2022/03/15 06:18:02;;;;;;;17.07;9.98;;;;;;;7.85;77.54;101582.21;2680664;89;21077;-70
2022/03/15 06:22:06;;;;;;;16.07;11.43;;;;;;;8.02;77.39;101579.19;2680385;89;21015;-69
2022/03/15 06:26:08;;;;;;;15.80;10.28;;;;;;;8.14;76.67;101585.20;2680759;89;21051;-70
2022/03/15 06:30:12;;;;;;;11.83;9.88;;;;;;;8.15;76.53;101580.75;2680596;89;21038;-71
2022/03/15 06:34:14;;;;;;;15.55;10.32;;;;;;;8.18;76.50;101590.34;2680496;89;21007;-70
2022/03/15 06:38:15;;;;;;;13.08;8.90;;;;;;;8.31;76.91;101591.44;2680553;89;21086;-71
2022/03/15 06:42:17;;;;;;;14.58;10.45;;;;;;;8.46;77.03;101602.20;2667100;89;21160;-69
2022/03/15 06:46:19;;;;;;;12.98;9.83;;;;;;;8.62;77.01;101603.61;2658504;89;21024;-71
2022/03/15 06:50:21;;;;;;;17.02;10.25;;;;;;;8.85;76.76;101597.09;2658620;89;21083;-70
2022/03/15 06:54:23;;;;;;;22.27;13.00;;;;;;;9.12;76.27;101596.52;2658602;89;21027;-69
2022/03/15 06:58:24;;;;;;;14.45;10.63;;;;;;;9.42;75.27;101588.64;2658704;88;21035;-69
2022/03/15 07:02:28;;;;;;;16.95;10.13;;;;;;;9.71;74.70;101587.94;2658774;89;21078;-70
2022/03/15 07:06:30;;;;;;;15.48;11.22;;;;;;;10.04;74.20;101588.25;2658706;89;21049;-70
2022/03/15 07:10:32;;;;;;;20.48;13.25;;;;;;;10.26;73.29;101591.80;2659093;88;21035;-69
2022/03/15 07:14:33;;;;;;;12.33;9.50;;;;;;;10.56;72.58;101590.08;2658780;89;21029;-70
2022/03/15 07:18:35;;;;;;;15.40;11.28;;;;;;;10.59;72.34;101597.87;2659096;89;21114;-70
2022/03/15 07:22:37;;;;;;;16.00;11.10;;;;;;;10.75;72.24;101598.27;2658975;88;21087;-70
2022/03/15 07:26:38;;;;;;;16.30;12.65;;;;;;;10.82;71.27;101596.95;2659084;88;21062;-69
2022/03/15 07:30:40;;;;;;;17.82;11.33;;;;;;;10.91;71.19;101601.69;2658931;88;21082;-70
2022/03/15 07:34:42;;;;;;;21.25;13.80;;;;;;;11.06;70.53;101604.34;2659135;88;21125;-70
2022/03/15 07:38:44;;;;;;;16.15;10.65;;;;;;;11.25;70.94;101603.56;2658961;88;21106;-69
2022/03/15 07:42:46;;;;;;;18.67;13.40;;;;;;;11.49;70.63;101597.60;2654710;89;21107;-70
2022/03/15 07:46:50;;;;;;;14.58;11.45;;;;;;;11.74;69.05;101591.98;2652967;89;21055;-70
2022/03/15 07:50:52;;;;;;;16.30;11.20;;;;;;;11.93;68.66;101593.44;2653098;88;21075;-70
2022/03/15 07:54:54;;;;;;;17.02;11.57;;;;;;;12.13;68.89;101596.14;2652628;89;21103;-70
2022/03/15 07:58:56;;;;;;;13.88;10.38;;;;;;;12.37;67.77;101596.25;2652903;89;21079;-70
2022/03/15 08:02:58;;;;;;;17.12;11.08;;;;;;;12.73;67.28;101595.63;2653050;89;21047;-70
2022/03/15 08:06:59;;;;;;;16.37;12.53;;;;;;;12.97;66.58;101591.24;2652777;89;21137;-69
2022/03/15 08:11:06;;;;;;;19.30;11.15;;;;;;;13.13;66.15;101590.98;2652893;89;21081;-69
2022/03/15 08:15:06;;;;;;;18.12;11.50;;;;;;;13.41;66.01;101581.45;2653609;88;21135;-71
2022/03/15 08:19:09;;;;;;;18.17;12.45;;;;;;;13.63;64.75;101578.55;2652966;89;21122;-70
2022/03/15 08:23:10;;;;;;;20.15;12.58;;;;;;;13.75;64.21;101574.94;2652742;89;21103;-70
2022/03/15 08:27:12;;;;;;;15.63;9.98;;;;;;;13.87;63.76;101568.31;2653042;89;21087;-70
2022/03/15 08:31:15;;;;;;;21.15;11.20;;;;;;;14.08;63.79;101569.86;2652745;88;21134;-69
2022/03/15 08:35:17;;;;;;;16.30;10.35;;;;;;;14.12;62.37;101569.48;2652856;89;21050;-69
2022/03/15 08:39:22;;;;;;;13.30;11.30;;;;;;;14.17;63.03;101570.97;2652726;89;21094;-69
2022/03/15 08:43:24;;;;;;;15.75;9.20;;;;;;;14.16;62.80;101564.76;2656983;89;21035;-69
2022/03/15 08:47:28;;;;;;;17.90;11.80;;;;;;;14.25;62.27;101565.41;2659123;89;21115;-69
2022/03/15 08:51:30;;;;;;;17.48;11.35;;;;;;;14.36;62.86;101554.33;2659395;88;21004;-69
2022/03/15 08:55:34;;;;;;;22.37;12.37;;;;;;;14.35;62.19;101553.97;2658949;89;29946;-69
2022/03/15 08:59:36;;;;;;;14.07;11.48;;;;;;;14.28;62.28;101554.92;2659073;89;21106;-70
2022/03/15 09:03:37;;;;;;;15.48;11.50;;;;;;;14.26;62.64;101547.50;2659176;88;21051;-69
2022/03/15 09:07:40;;;;;;;16.82;12.20;;;;;;;14.30;62.33;101551.64;2659210;89;21066;-70
2022/03/15 09:11:42;;;;;;;19.27;12.85;;;;;;;14.38;62.31;101545.69;2658994;88;21098;-69
2022/03/15 09:15:44;;;;;;;17.27;11.88;;;;;;;14.47;61.79;101548.13;2658992;89;21666;-69
2022/03/15 09:19:46;;;;;;;20.00;14.05;;;;;;;14.55;62.18;101543.05;2658798;89;21082;-70
2022/03/15 09:23:47;;;;;;;24.35;13.88;;;;;;;14.60;61.77;101543.53;2659028;89;21043;-70
2022/03/15 09:27:49;;;;;;;27.65;14.35;;;;;;;14.65;61.81;101530.62;2659079;89;21108;-69
2022/03/15 09:31:51;;;;;;;21.12;14.23;;;;;;;14.77;61.58;101536.85;2659077;88;21074;-70
2022/03/15 09:35:53;;;;;;;24.95;16.52;;;;;;;14.89;60.98;101540.37;2659176;89;21043;-70
2022/03/15 09:39:57;;;;;;;18.20;15.20;;;;;;;14.93;61.14;101523.56;2658673;88;21107;-69
2022/03/15 09:43:59;;;;;;;21.00;13.28;;;;;;;14.87;60.18;101524.91;2676499;87;21214;-69
2022/03/15 09:48:04;;;;;;;20.25;13.15;;;;;;;15.01;60.22;101515.75;2681688;89;21058;-69
2022/03/15 09:52:08;;;;;;;21.23;15.40;;;;;;;15.04;60.47;101507.95;2681654;89;21093;-69
2022/03/15 09:56:11;;;;;;;22.30;11.95;;;;;;;15.11;60.05;101505.13;2681546;89;21062;-69
2022/03/15 10:00:16;;;;;;;19.52;12.55;;;;;;;15.21;60.56;101507.43;2681586;89;21666;-69
2022/03/15 10:04:20;;;;;;;27.98;14.70;;;;;;;15.45;58.50;101505.02;2681390;89;21054;-69
2022/03/15 10:08:22;;;;;;;20.97;14.18;;;;;;;15.47;59.88;101496.88;2681142;89;21162;-69
2022/03/15 10:12:23;;;;;;;17.00;12.98;;;;;;;15.53;59.12;101487.83;2681561;89;21070;-69
2022/03/15 10:16:33;;;;;;;22.67;15.55;;;;;;;15.63;57.58;101481.67;2681377;89;21086;-69
2022/03/15 10:20:42;;;;;;;17.73;12.28;;;;;;;15.59;57.33;101476.21;2681480;89;21089;-69
2022/03/15 10:24:46;;;;;;;18.90;14.28;;;;;;;15.74;57.55;101471.37;2681253;89;21077;-69
2022/03/15 10:28:48;;;;;;;31.02;17.45;;;;;;;15.71;57.27;101467.11;2681481;89;20991;-70
2022/03/15 10:32:50;;;;;;;18.73;13.70;;;;;;;15.92;56.42;101461.78;2681520;87;21073;-69
2022/03/15 10:36:56;;;;;;;16.85;13.38;;;;;;;16.18;56.73;101460.00;2681603;87;21050;-69
2022/03/15 10:40:56;;;;;;;18.75;13.95;;;;;;;16.22;55.25;101460.59;2681534;89;21070;-69
2022/03/15 10:44:58;;;;;;;17.15;13.68;;;;;;;16.33;53.99;101448.91;2681502;89;21105;-69
2022/03/15 10:49:03;;;;;;;14.47;11.63;;;;;;;16.45;54.86;101442.94;2681781;89;21074;-69
2022/03/15 10:53:08;;;;;;;14.85;10.55;;;;;;;16.63;54.76;101441.30;2681822;89;21089;-69
2022/03/15 10:57:09;;;;;;;12.63;9.58;;;;;;;16.67;53.29;101440.55;2681434;89;21074;-69
2022/03/15 11:01:12;;;;;;;11.28;8.15;;;;;;;16.61;52.37;101443.28;2681598;89;21066;-69
2022/03/15 11:05:29;;;;;;;12.05;9.00;;;;;;;16.67;52.21;101436.52;2681535;89;21110;-69
2022/03/15 11:09:34;;;;;;;15.15;9.75;;;;;;;16.53;51.19;101431.04;2679991;89;21061;-70
2022/03/15 11:13:36;;;;;;;14.03;9.00;;;;;;;16.53;51.95;101427.02;2681893;89;21055;-69
2022/03/15 11:17:38;;;;;;;15.68;9.35;;;;;;;16.64;52.94;101418.83;2681288;89;21042;-69
2022/03/15 11:21:41;;;;;;;11.90;7.65;;;;;;;16.75;51.16;101417.85;2681546;89;21109;-69
2022/03/15 11:25:50;;;;;;;19.80;11.43;;;;;;;16.92;51.93;101412.31;2681487;89;21031;-69
2022/03/15 11:29:57;;;;;;;19.25;10.23;;;;;;;17.01;50.74;101397.21;2680408;89;21141;-69
2022/03/15 11:33:59;;;;;;;9.63;8.58;;;;;;;16.90;49.44;101387.42;2681722;89;21110;-69
2022/03/15 11:38:05;;;;;;;17.95;9.98;;;;;;;16.98;49.79;101384.89;2681603;89;21058;-69
2022/03/15 11:42:11;;;;;;;11.70;8.38;;;;;;;17.17;50.67;101382.33;2677310;89;21103;-70
2022/03/15 11:46:24;;;;;;;12.93;9.65;;;;;;;17.36;50.79;101374.75;2659332;89;21095;-69
2022/03/15 11:50:45;;;;;;;17.05;10.45;;;;;;;17.45;50.86;101367.16;2658483;89;20988;-69
2022/03/15 11:55:05;;;;;;;11.97;7.78;;;;;;;17.64;50.20;101355.52;2653611;89;21059;-68
2022/03/15 11:59:07;;;;;;;13.60;9.25;;;;;;;17.68;48.96;101349.32;2658535;89;21035;-69
2022/03/15 12:03:09;;;;;;;13.55;9.33;;;;;;;17.71;48.71;101340.98;2659723;89;21015;-69
2022/03/15 12:07:16;;;;;;;21.30;9.05;;;;;;;17.71;48.70;101335.59;2659041;89;21059;-69
2022/03/15 12:11:29;;;;;;;9.23;6.90;;;;;;;17.68;49.04;101329.14;2657819;88;21059;-69
2022/03/15 12:15:39;;;;;;;16.35;7.22;;;;;;;17.61;47.77;101325.35;2487186;94;21378;-68
2022/03/15 12:19:48;;;;;;;12.53;7.87;;;;;;;17.60;48.27;101316.45;2486953;95;21065;-69
2022/03/15 12:23:50;;;;;;;14.85;10.18;;;;;;;17.39;47.69;101319.33;2486856;95;21124;-69
2022/03/15 12:27:52;;;;;;;11.30;7.97;;;;;;;17.34;48.21;101309.52;2486810;95;21049;-69
2022/03/15 12:31:55;;;;;;;11.78;7.45;;;;;;;17.43;47.99;101307.80;2486970;95;21104;-69
2022/03/15 12:36:08;;;;;;;12.70;8.03;;;;;;;17.52;47.95;101299.70;2486860;95;21179;-69
2022/03/15 12:40:12;;;;;;;11.95;7.75;;;;;;;17.60;47.70;101292.23;2486925;95;21121;-70
2022/03/15 12:44:15;;;;;;;12.35;9.13;;;;;;;17.68;47.61;101282.05;2481390;95;21069;-69
2022/03/15 12:48:18;;;;;;;14.35;9.40;;;;;;;17.62;47.21;101275.45;2478325;96;21141;-70
2022/03/15 12:52:19;;;;;;;10.85;7.28;;;;;;;17.67;47.10;101259.70;2579079;90;21033;-69
2022/03/15 12:56:21;;;;;;;12.78;8.35;;;;;;;17.64;47.10;101253.77;2646120;90;21075;-69
2022/03/15 13:00:25;;;;;;;10.90;9.08;;;;;;;17.61;48.14;101248.69;2645852;88;21071;-69
2022/03/15 13:04:30;;;;;;;10.88;7.45;;;;;;;17.48;47.66;101239.09;2645948;88;21063;-69
2022/03/15 13:08:33;;;;;;;11.35;9.00;;;;;;;17.33;48.09;101232.53;2645786;90;21043;-69
2022/03/15 13:12:35;;;;;;;12.55;7.58;;;;;;;17.23;47.16;101233.39;2645929;90;21064;-69
2022/03/15 13:16:50;;;;;;;15.15;9.40;;;;;;;17.21;47.94;101223.29;2645805;90;21099;-69
2022/03/15 13:21:03;;;;;;;14.43;6.72;;;;;;;17.25;47.95;101215.27;2645831;88;21061;-69
2022/03/15 13:25:04;;;;;;;14.13;8.78;;;;;;;17.27;48.14;101205.73;2644055;90;21080;-69
2022/03/15 13:29:06;;;;;;;20.00;10.25;;;;;;;17.27;48.34;101194.45;2645728;90;21071;-69
2022/03/15 13:33:08;;;;;;;12.33;8.65;;;;;;;17.25;48.14;101186.21;2678156;89;21472;-69
2022/03/15 13:37:09;;;;;;;12.90;8.35;;;;;;;17.22;48.25;101177.10;2678659;89;21097;-69
2022/03/15 13:41:14;;;;;;;13.00;8.25;;;;;;;17.20;48.33;101175.06;2678470;89;21587;-69
2022/03/15 13:45:17;;;;;;;10.70;8.30;;;;;;;17.14;47.31;101175.15;2661764;89;21093;-69
2022/03/15 13:49:28;;;;;;;12.78;8.83;;;;;;;17.03;48.59;101165.91;2659091;89;21053;-69
2022/03/15 13:53:31;;;;;;;14.60;8.00;;;;;;;16.98;48.26;101159.59;2658628;89;21089;-69
2022/03/15 13:57:36;;;;;;;13.80;9.93;;;;;;;16.96;48.78;101146.31;2659270;89;21034;-69
2022/03/15 14:01:41;;;;;;;12.10;9.03;;;;;;;17.00;49.15;101148.26;2659331;88;21098;-69
2022/03/15 14:05:43;;;;;;;14.35;10.48;;;;;;;17.03;47.83;101136.34;2659350;89;21086;-69
2022/03/15 14:09:45;;;;;;;14.18;8.70;;;;;;;16.99;47.96;101132.61;2659015;89;21066;-69
2022/03/15 14:14:06;;;;;;;15.50;9.68;;;;;;;16.98;48.51;101122.86;2659296;88;21008;-70
2022/03/15 14:18:08;;;;;;;12.45;8.55;;;;;;;16.98;48.80;101117.48;2658741;89;21071;-69
2022/03/15 14:22:12;;;;;;;18.42;14.20;;;;;;;16.96;48.10;101114.07;2659112;89;21035;-69
2022/03/15 14:26:19;;;;;;;26.33;10.90;;;;;;;16.92;48.05;101115.84;2659204;88;21063;-69
2022/03/15 14:30:22;;;;;;;37.75;18.55;;;;;;;16.86;48.55;101110.56;2658168;89;21539;-69
2022/03/15 14:34:23;;;;;;;24.02;9.93;;;;;;;16.76;47.78;101101.70;2659107;89;21063;-69
2022/03/15 14:38:25;;;;;;;14.45;9.30;;;;;;;16.77;48.60;101098.02;2659396;89;21154;-69
2022/03/15 14:42:27;;;;;;;20.17;14.35;;;;;;;16.74;48.26;101096.98;2660510;88;21074;-69
2022/03/15 14:46:29;;;;;;;57.13;34.38;;;;;;;16.62;48.07;101091.77;2681161;89;21046;-69
2022/03/15 14:50:31;;;;;;;23.62;15.85;;;;;;;16.65;48.27;101076.70;2681694;89;21090;-68
2022/03/15 14:54:33;;;;;;;186.05;117.75;;;;;;;16.59;49.24;101082.66;2681782;88;21074;-68
2022/03/15 14:58:36;;;;;;;32.75;18.60;;;;;;;16.45;48.46;101068.34;2681432;89;21078;-69
2022/03/15 15:02:39;;;;;;;18.57;10.40;;;;;;;16.36;49.29;101060.66;2681082;89;21066;-67
2022/03/15 15:06:43;;;;;;;16.90;9.48;;;;;;;16.24;51.02;101061.33;2666107;89;21043;-67
2022/03/15 15:10:46;;;;;;;21.05;11.10;;;;;;;16.13;50.20;101044.89;2638647;90;21117;-67
2022/03/15 15:14:51;;;;;;;49.23;24.85;;;;;;;16.01;50.68;101035.30;2639216;90;21041;-67
2022/03/15 15:18:52;;;;;;;44.42;34.88;;;;;;;15.92;51.98;101020.42;2639369;90;21090;-66
2022/03/15 15:22:54;;;;;;;37.88;23.27;;;;;;;15.81;53.17;101013.34;2639391;90;21027;-67
2022/03/15 15:26:56;;;;;;;15.75;12.13;;;;;;;15.75;53.02;101011.23;2632862;90;21093;-68
2022/03/15 15:30:58;;;;;;;19.10;12.37;;;;;;;15.63;53.87;101009.20;2631077;90;21550;-68
2022/03/15 15:35:00;;;;;;;69.07;35.25;;;;;;;15.52;53.81;101007.98;2630957;90;21088;-67
2022/03/15 15:39:03;;;;;;;222.48;137.00;;;;;;;15.43;54.33;101009.67;2597527;90;21083;-66
2022/03/15 15:43:10;;;;;;;199.17;120.90;;;;;;;15.33;54.91;101012.34;2620308;89;21078;-67
2022/03/15 15:47:08;;;;;;;36.13;24.75;;;;;;;15.21;55.51;101012.09;2668986;89;21066;-67
2022/03/15 15:51:11;;;;;;;95.67;55.15;;;;;;;15.02;56.00;100995.50;2669989;89;21039;-66
2022/03/15 15:55:14;;;;;;;40.88;21.40;;;;;;;14.82;56.33;100988.76;2669823;89;21062;-66
2022/03/15 15:59:16;;;;;;;44.38;25.92;;;;;;;14.68;56.14;100988.11;2669956;89;21145;-66
2022/03/15 16:03:18;;;;;;;48.02;25.43;;;;;;;14.50;56.51;100979.02;2669922;89;21059;-66
2022/03/15 16:07:27;;;;;;;20.77;15.13;;;;;;;14.38;56.61;100978.27;2669846;89;21050;-68
2022/03/15 16:11:26;;;;;;;23.65;15.85;;;;;;;14.26;55.68;100978.38;2668695;89;21070;-66
2022/03/15 16:15:26;;;;;;;19.25;13.05;;;;;;;14.19;56.26;100972.34;2646249;88;21105;-67
2022/03/15 16:19:28;;;;;;;28.60;17.07;;;;;;;14.02;56.06;100958.59;2597973;89;21065;-68
2022/03/15 16:23:30;;;;;;;159.82;98.62;;;;;;;13.94;55.85;100960.58;2586805;92;21081;-67
2022/03/15 16:27:31;;;;;;;73.97;43.65;;;;;;;13.86;56.17;100956.39;2587521;92;21098;-68
2022/03/15 16:31:40;;;;;;;37.53;25.70;;;;;;;13.76;56.33;100948.78;2596159;90;21054;-67
2022/03/15 16:35:41;;;;;;;34.80;21.93;;;;;;;13.64;56.88;100946.66;2598323;90;21074;-67
2022/03/15 16:39:44;;;;;;;25.80;14.10;;;;;;;13.53;57.38;100948.40;2587383;90;21070;-67
2022/03/15 16:43:47;;;;;;;30.50;18.00;;;;;;;13.42;57.10;100944.42;2585889;91;21118;-68
2022/03/15 16:47:51;;;;;;;22.58;15.75;;;;;;;13.33;57.22;100942.50;2583118;92;21081;-70
2022/03/15 16:51:55;;;;;;;27.58;16.20;;;;;;;13.23;57.36;100942.42;2582976;92;21121;-68
2022/03/15 16:55:58;;;;;;;28.25;17.12;;;;;;;13.10;57.56;100930.57;2605439;89;21094;-70
2022/03/15 17:00:00;;;;;;;49.33;24.72;;;;;;;13.04;57.92;100933.76;2623476;90;21066;-67
2022/03/15 17:08:22;;;;;;;31.25;17.67;;;;;;;12.60;62.08;100927.91;2623390;90;21102;-67
2022/03/15 17:12:35;;;;;;;24.27;16.02;;;;;;;12.52;60.31;100911.65;2625837;89;21074;-67
2022/03/15 17:16:31;;;;;;;22.22;15.85;;;;;;;12.45;59.42;100914.45;2645753;89;21094;-67
2022/03/15 17:20:34;;;;;;;18.95;14.70;;;;;;;12.45;59.62;100904.62;2665668;89;21077;-68
2022/03/15 17:24:38;;;;;;;23.57;15.68;;;;;;;12.40;60.03;100905.01;2645215;89;21142;-66
2022/03/15 17:28:41;;;;;;;22.80;12.90;;;;;;;12.36;60.18;100906.70;2623901;90;21123;-66
2022/03/15 17:32:47;;;;;;;29.15;15.38;;;;;;;12.27;60.88;100898.95;2654819;89;21043;-65
2022/03/15 17:36:51;;;;;;;22.13;13.95;;;;;;;12.17;61.12;100895.30;2635073;89;21404;-68
2022/03/15 17:40:56;;;;;;;27.82;14.05;;;;;;;12.09;61.48;100888.76;2606591;90;21190;-69
2022/03/15 17:45:02;;;;;;;18.52;13.22;;;;;;;12.01;61.78;100877.86;2611221;91;21064;-68
2022/03/15 17:49:11;;;;;;;24.10;13.70;;;;;;;11.92;62.26;100874.53;2642015;89;21129;-67
2022/03/15 17:53:14;;;;;;;18.48;13.72;;;;;;;11.83;62.90;100862.30;2621487;90;21007;-66
2022/03/15 17:57:20;;;;;;;25.10;15.35;;;;;;;11.74;62.69;100865.67;2630911;90;21094;-64
2022/03/15 18:01:19;;;;;;;25.68;18.12;;;;;;;11.74;62.91;100869.67;2630160;90;21074;-64
2022/03/15 18:05:22;;;;;;;32.78;21.65;;;;;;;11.65;63.79;100872.56;2630892;90;21066;-65
2022/03/15 18:09:24;;;;;;;36.28;22.77;;;;;;;11.58;64.24;100856.19;2630701;90;21065;-67
2022/03/15 18:13:35;;;;;;;36.83;23.27;;;;;;;11.50;64.86;100852.45;2630747;90;21115;-67
2022/03/15 18:17:32;;;;;;;40.70;23.95;;;;;;;11.42;65.00;100861.03;2630114;90;21050;-65
2022/03/15 18:21:35;;;;;;;37.70;24.45;;;;;;;11.35;65.50;100857.11;2630699;90;21730;-66
2022/03/15 18:25:38;;;;;;;41.65;23.92;;;;;;;11.33;65.67;100857.72;2645484;89;21717;-67
2022/03/15 18:29:40;;;;;;;34.10;23.10;;;;;;;11.33;65.90;100850.59;2662823;89;21107;-66
2022/03/15 18:33:43;;;;;;;36.35;21.10;;;;;;;11.32;65.96;100842.70;2662769;89;21066;-65
2022/03/15 18:37:46;;;;;;;34.55;21.48;;;;;;;11.26;65.84;100826.70;2662793;89;21126;-65
2022/03/15 18:41:51;;;;;;;31.57;22.32;;;;;;;11.34;65.37;100821.66;2662929;89;21050;-67